createdAt,value
2022-12-03T00:00:54.880Z,2.96
2022-12-03T00:03:57.317Z,2.92
2022-12-03T00:06:59.627Z,2.92
2022-12-03T00:10:02.018Z,2.82
2022-12-03T00:13:04.225Z,2.80
2022-12-03T00:16:06.624Z,2.77
2022-12-03T00:19:10.627Z,2.81
2022-12-03T00:22:12.998Z,2.75
2022-12-03T00:25:15.386Z,2.65
2022-12-03T00:28:17.660Z,2.65
2022-12-03T00:31:21.487Z,2.71
2022-12-03T00:34:23.873Z,2.65
2022-12-03T00:37:26.077Z,2.60
2022-12-03T00:40:28.436Z,2.62
2022-12-03T00:43:30.693Z,2.55
2022-12-03T00:46:33.014Z,2.58
2022-12-03T00:49:35.490Z,2.62
2022-12-03T00:52:37.884Z,2.55
2022-12-03T00:55:40.144Z,2.44
2022-12-03T00:58:42.380Z,2.51
2022-12-03T01:01:44.639Z,2.60
2022-12-03T01:04:46.993Z,2.64
2022-12-03T01:07:49.379Z,2.74
2022-12-03T01:10:51.682Z,2.47
2022-12-03T01:13:53.928Z,2.62
2022-12-03T01:16:56.161Z,2.64
2022-12-03T01:19:59.179Z,2.72
2022-12-03T01:23:01.443Z,2.58
2022-12-03T01:26:03.962Z,2.48
2022-12-03T01:29:06.608Z,2.60
2022-12-03T01:32:22.275Z,2.66
2022-12-03T01:35:24.543Z,2.82
2022-12-03T01:38:26.770Z,2.77
2022-12-03T01:41:29.816Z,2.74
2022-12-03T01:44:34.762Z,2.81
2022-12-03T01:47:38.173Z,2.75
2022-12-03T01:50:40.409Z,2.58
2022-12-03T01:53:44.179Z,2.58
2022-12-03T01:56:47.235Z,2.74
2022-12-03T01:59:49.987Z,2.84
2022-12-03T02:02:55.201Z,2.77
2022-12-03T02:05:57.515Z,2.82
2022-12-03T02:09:00.270Z,2.84
2022-12-03T02:12:02.523Z,2.88
2022-12-03T02:15:08.900Z,2.74
2022-12-03T02:18:11.571Z,2.75
2022-12-03T02:21:38.766Z,2.66
2022-12-03T02:24:48.678Z,2.55
2022-12-03T02:27:51.292Z,2.53
2022-12-03T02:30:53.572Z,2.40
2022-12-03T02:33:55.956Z,2.31
2022-12-03T02:36:58.207Z,2.20
2022-12-03T02:40:11.262Z,2.14
2022-12-03T02:43:16.588Z,2.09
2022-12-03T02:46:18.790Z,2.07
2022-12-03T02:49:21.074Z,2.09
2022-12-03T02:52:23.840Z,2.07
2022-12-03T02:55:30.667Z,2.02
2022-12-03T02:58:35.867Z,2.09
2022-12-03T03:01:38.306Z,2.10
2022-12-03T03:04:42.254Z,2.13
2022-12-03T03:07:45.096Z,1.93
2022-12-03T03:10:47.783Z,1.87
2022-12-03T03:13:50.084Z,1.92
2022-12-03T03:16:56.088Z,1.89
2022-12-03T03:19:58.507Z,1.78
2022-12-03T03:23:12.692Z,1.76
2022-12-03T03:26:16.568Z,1.65
2022-12-03T03:29:19.298Z,1.66
2022-12-03T03:32:21.599Z,1.58
2022-12-03T03:35:25.269Z,1.41
2022-12-03T03:38:29.864Z,1.07
2022-12-03T03:41:34.528Z,1.05
2022-12-03T03:44:36.858Z,1.04
2022-12-03T03:47:40.419Z,1.04
2022-12-03T03:50:44.595Z,1.13
2022-12-03T03:53:48.988Z,1.04
2022-12-03T03:56:52.062Z,1.16
2022-12-03T03:59:54.305Z,1.26
2022-12-03T04:02:56.572Z,1.26
2022-12-03T04:05:58.813Z,1.23
2022-12-03T04:09:01.046Z,1.20
2022-12-03T04:12:21.982Z,1.28
2022-12-03T04:15:25.341Z,1.27
2022-12-03T04:18:42.870Z,1.28
2022-12-03T04:22:03.770Z,1.38
2022-12-03T04:25:25.324Z,1.47
2022-12-03T04:28:46.949Z,1.34
2022-12-03T04:32:07.765Z,1.26
2022-12-03T04:35:28.889Z,1.30
2022-12-03T04:38:31.292Z,1.26
2022-12-03T04:41:39.972Z,1.23
2022-12-03T04:44:42.373Z,1.21
2022-12-03T04:47:50.872Z,1.17
2022-12-03T04:50:53.256Z,1.21
2022-12-03T04:53:55.493Z,1.14
2022-12-03T04:56:57.777Z,1.07
2022-12-03T05:00:00.086Z,0.91
2022-12-03T05:03:02.383Z,0.89
2022-12-03T05:06:04.700Z,1.00
2022-12-03T05:09:06.918Z,1.13
2022-12-03T05:12:09.200Z,1.17
2022-12-03T05:15:11.606Z,1.38
2022-12-03T05:18:13.944Z,1.35
2022-12-03T05:21:16.295Z,1.34
2022-12-03T05:24:18.525Z,1.31
2022-12-03T05:27:23.939Z,1.31
2022-12-03T05:30:26.812Z,1.37
2022-12-03T05:33:29.057Z,1.20
2022-12-03T05:36:31.287Z,1.41
2022-12-03T05:39:33.561Z,1.48
2022-12-03T05:42:54.207Z,1.52
2022-12-03T05:45:56.422Z,1.48
2022-12-03T05:48:58.748Z,1.49
2022-12-03T05:52:00.932Z,1.58
2022-12-03T05:55:04.368Z,1.41
2022-12-03T05:58:06.993Z,1.47
2022-12-03T06:01:09.271Z,1.47
2022-12-03T06:04:11.457Z,1.63
2022-12-03T06:07:14.284Z,1.56
2022-12-03T06:10:21.459Z,1.63
2022-12-03T06:13:23.698Z,1.63
2022-12-03T06:16:26.251Z,1.63
2022-12-03T06:19:28.644Z,1.79
2022-12-03T06:22:30.900Z,1.82
2022-12-03T06:25:33.168Z,1.82
2022-12-03T06:28:35.369Z,1.78
2022-12-03T06:31:37.648Z,1.93
2022-12-03T06:34:40.139Z,2.03
2022-12-03T06:37:42.401Z,2.23
2022-12-03T06:40:44.663Z,2.30
2022-12-03T06:43:47.092Z,2.43
2022-12-03T06:46:49.320Z,2.61
2022-12-03T06:49:51.555Z,2.55
2022-12-03T06:52:53.762Z,2.81
2022-12-03T06:55:55.992Z,2.78
2022-12-03T06:58:58.312Z,2.71
2022-12-03T07:02:01.180Z,3.06
2022-12-03T07:05:04.424Z,3.44
2022-12-03T07:08:06.928Z,3.83
2022-12-03T07:11:29.544Z,3.71
2022-12-03T07:14:31.822Z,3.56
2022-12-03T07:17:34.078Z,3.54
2022-12-03T07:20:39.367Z,3.59
2022-12-03T07:23:41.587Z,3.59
2022-12-03T07:26:43.867Z,4.12
2022-12-03T07:29:46.083Z,4.41
2022-12-03T07:32:48.333Z,4.45
2022-12-03T07:35:50.553Z,4.60
2022-12-03T07:38:52.818Z,4.83
2022-12-03T07:41:55.026Z,5.75
2022-12-03T07:44:58.403Z,6.61
2022-12-03T07:48:00.609Z,6.41
2022-12-03T07:51:03.016Z,6.70
2022-12-03T07:54:05.418Z,6.57
2022-12-03T07:57:07.660Z,6.85
2022-12-03T08:00:10.815Z,7.44
2022-12-03T08:03:13.255Z,7.88
2022-12-03T08:06:15.464Z,8.04
2022-12-03T08:09:17.759Z,7.53
2022-12-03T08:12:40.032Z,7.35
2022-12-03T08:15:49.111Z,6.94
2022-12-03T08:18:54.183Z,7.15
2022-12-03T08:22:01.072Z,7.13
2022-12-03T08:25:09.995Z,6.70
2022-12-03T08:28:19.520Z,6.36
2022-12-03T08:31:32.270Z,6.29
2022-12-03T08:34:40.421Z,6.21
2022-12-03T08:37:42.663Z,6.61
2022-12-03T08:40:46.891Z,7.94
2022-12-03T08:43:49.134Z,8.18
2022-12-03T08:47:02.395Z,8.11
2022-12-03T08:50:42.615Z,7.11
2022-12-03T08:53:48.715Z,6.44
2022-12-03T08:56:50.920Z,6.68
2022-12-03T08:59:58.950Z,7.16
2022-12-03T09:03:01.468Z,7.05
2022-12-03T09:06:04.565Z,7.57
2022-12-03T09:09:06.963Z,7.06
2022-12-03T09:12:09.334Z,6.57
2022-12-03T09:15:11.624Z,7.30
2022-12-03T09:18:17.017Z,7.42
2022-12-03T09:21:19.187Z,6.85
2022-12-03T09:24:21.494Z,6.77
2022-12-03T09:27:23.746Z,6.48
2022-12-03T09:30:26.020Z,6.78
2022-12-03T09:33:28.400Z,7.19
2022-12-03T09:36:30.899Z,6.67
2022-12-03T09:39:33.440Z,6.78
2022-12-03T09:42:36.032Z,7.91
2022-12-03T09:45:38.387Z,7.19
2022-12-03T09:48:40.774Z,7.33
2022-12-03T09:51:44.524Z,7.08
2022-12-03T09:54:47.809Z,7.06
2022-12-03T09:57:52.496Z,6.94
2022-12-03T10:00:55.594Z,7.35
2022-12-03T10:03:58.654Z,8.41
2022-12-03T10:07:01.510Z,7.74
2022-12-03T10:10:04.953Z,8.97
2022-12-03T10:13:12.610Z,9.31
2022-12-03T10:16:17.292Z,8.77
2022-12-03T10:19:24.335Z,8.86
2022-12-03T10:22:26.552Z,8.39
2022-12-03T10:25:28.915Z,8.25
2022-12-03T10:28:37.440Z,8.05
2022-12-03T10:31:40.300Z,8.56
2022-12-03T10:34:42.771Z,9.38
2022-12-03T10:38:06.766Z,9.71
2022-12-03T10:41:27.355Z,9.63
2022-12-03T10:44:30.691Z,9.32
2022-12-03T10:47:33.092Z,9.49
2022-12-03T10:50:35.800Z,10.43
2022-12-03T10:53:39.906Z,11.89
2022-12-03T10:56:42.377Z,12.41
2022-12-03T10:59:44.793Z,13.48
2022-12-03T11:02:53.358Z,12.32
2022-12-03T11:06:01.081Z,11.80
2022-12-03T11:09:08.817Z,11.50
2022-12-03T11:12:18.679Z,11.62
2022-12-03T11:15:45.238Z,11.04
2022-12-03T11:18:50.529Z,10.68
2022-12-03T11:22:05.236Z,10.98
2022-12-03T11:25:25.858Z,11.42
2022-12-03T11:28:28.179Z,11.70
2022-12-03T11:31:36.468Z,11.84
2022-12-03T11:34:42.103Z,10.43
2022-12-03T11:37:44.472Z,11.36
2022-12-03T11:41:09.461Z,11.26
2022-12-03T11:44:30.143Z,11.09
2022-12-03T11:47:33.984Z,11.98
2022-12-03T11:50:42.251Z,12.24
2022-12-03T11:53:45.347Z,11.84
2022-12-03T11:56:49.518Z,11.05
2022-12-03T11:59:59.822Z,11.23
2022-12-03T12:03:02.180Z,10.71
2022-12-03T12:06:14.517Z,10.51
2022-12-03T12:09:49.009Z,11.94
2022-12-03T12:12:55.081Z,12.49
2022-12-03T12:15:58.824Z,11.63
2022-12-03T12:19:27.889Z,11.82
2022-12-03T12:22:31.251Z,12.23
2022-12-03T12:25:39.671Z,12.07
2022-12-03T12:28:41.845Z,11.72
2022-12-03T12:31:44.179Z,10.91
2022-12-03T12:34:48.794Z,9.98
2022-12-03T12:38:07.751Z,9.45
2022-12-03T12:41:10.243Z,9.07
2022-12-03T12:44:15.575Z,8.73
2022-12-03T12:47:17.983Z,8.44
2022-12-03T12:50:20.320Z,8.28
2022-12-03T12:53:25.166Z,8.18
2022-12-03T12:56:32.130Z,8.20
2022-12-03T12:59:36.244Z,8.28
2022-12-03T13:02:51.538Z,8.38
2022-12-03T13:05:56.684Z,8.49
2022-12-03T13:09:01.272Z,8.79
2022-12-03T13:12:04.259Z,8.72
2022-12-03T13:15:27.151Z,8.69
2022-12-03T13:18:54.862Z,8.57
2022-12-03T13:22:01.196Z,8.57
2022-12-03T13:25:58.195Z,8.67
2022-12-03T13:28:57.928Z,8.49
2022-12-03T13:32:02.745Z,8.48
2022-12-03T13:35:17.527Z,8.39
2022-12-03T13:38:21.382Z,8.25
2022-12-03T13:41:42.225Z,8.14
2022-12-03T13:44:47.604Z,8.16
2022-12-03T13:47:53.936Z,8.09
2022-12-03T13:50:56.223Z,7.98
2022-12-03T13:54:00.077Z,7.91
2022-12-03T13:57:05.124Z,7.85
2022-12-03T14:00:08.094Z,7.81
2022-12-03T14:03:14.671Z,7.75
2022-12-03T14:06:16.987Z,7.74
2022-12-03T14:09:19.189Z,7.78
2022-12-03T14:12:27.104Z,7.71
2022-12-03T14:15:29.286Z,7.71
2022-12-03T14:18:31.904Z,7.62
2022-12-03T14:21:34.121Z,7.60
2022-12-03T14:24:37.673Z,7.57
2022-12-03T14:27:39.848Z,7.54
2022-12-03T14:30:42.106Z,7.52
2022-12-03T14:33:44.296Z,7.47
2022-12-03T14:36:46.611Z,7.44
2022-12-03T14:39:48.855Z,7.49
2022-12-03T14:42:51.145Z,7.44
2022-12-03T14:45:53.451Z,7.47
2022-12-03T14:48:56.355Z,7.42
2022-12-03T14:51:58.684Z,7.47
2022-12-03T14:55:00.898Z,7.46
2022-12-03T14:58:03.677Z,7.46
2022-12-03T15:01:06.155Z,7.35
2022-12-03T15:04:08.513Z,7.29
2022-12-03T15:07:10.820Z,7.30
2022-12-03T15:10:13.069Z,7.30
2022-12-03T15:13:15.339Z,7.29
2022-12-03T15:16:17.702Z,7.29
2022-12-03T15:19:21.443Z,7.27
2022-12-03T15:22:23.657Z,7.27
2022-12-03T15:25:26.183Z,7.37
2022-12-03T15:28:34.834Z,7.30
2022-12-03T15:31:37.184Z,7.25
2022-12-03T15:34:39.425Z,7.23
2022-12-03T15:37:41.654Z,7.22
2022-12-03T15:40:44.181Z,7.33
2022-12-03T15:43:48.054Z,7.44
2022-12-03T15:46:50.232Z,7.36
2022-12-03T15:49:52.908Z,7.33
2022-12-03T15:52:55.403Z,7.35
2022-12-03T15:55:57.650Z,7.32
2022-12-03T15:58:59.852Z,7.32
2022-12-03T16:02:02.096Z,7.30
2022-12-03T16:05:07.279Z,7.26
2022-12-03T16:08:09.665Z,7.30
2022-12-03T16:11:11.842Z,7.29
2022-12-03T16:14:32.288Z,7.25
2022-12-03T16:17:34.607Z,7.27
2022-12-03T16:20:39.902Z,7.23
2022-12-03T16:23:42.491Z,7.35
2022-12-03T16:26:44.753Z,7.35
2022-12-03T16:29:48.227Z,7.20
2022-12-03T16:32:50.634Z,7.25
2022-12-03T16:35:52.849Z,7.16
2022-12-03T16:38:55.120Z,7.12
2022-12-03T16:41:57.351Z,7.11
2022-12-03T16:44:59.658Z,7.06
2022-12-03T16:48:02.409Z,6.99
2022-12-03T16:51:04.794Z,6.99
2022-12-03T16:54:07.004Z,6.95
2022-12-03T16:57:09.349Z,6.98
2022-12-03T17:00:12.030Z,6.94
2022-12-03T17:03:14.643Z,6.98
2022-12-03T17:06:16.847Z,6.92
2022-12-03T17:09:19.114Z,6.94
2022-12-03T17:12:21.320Z,6.91
2022-12-03T17:15:23.572Z,6.81
2022-12-03T17:18:25.844Z,6.81
2022-12-03T17:21:33.475Z,6.72
2022-12-03T17:24:36.991Z,6.63
2022-12-03T17:27:44.800Z,6.58
2022-12-03T17:30:47.699Z,6.45
2022-12-03T17:33:50.019Z,6.30
2022-12-03T17:36:52.226Z,6.21
2022-12-03T17:39:54.707Z,6.09
2022-12-03T17:42:57.083Z,5.96
2022-12-03T17:46:01.492Z,5.86
2022-12-03T17:49:03.821Z,5.75
2022-12-03T17:52:06.134Z,5.73
2022-12-03T17:55:12.780Z,5.71
2022-12-03T17:58:15.509Z,5.79
2022-12-03T18:01:17.819Z,5.75
2022-12-03T18:04:20.204Z,5.76
2022-12-03T18:07:24.880Z,5.71
2022-12-03T18:10:27.262Z,5.55
2022-12-03T18:13:29.436Z,5.51
2022-12-03T18:16:31.778Z,5.45
2022-12-03T18:19:33.995Z,5.24
2022-12-03T18:22:36.903Z,5.27
2022-12-03T18:25:39.368Z,5.24
2022-12-03T18:28:41.662Z,5.34
2022-12-03T18:31:43.924Z,5.24
2022-12-03T18:34:46.221Z,5.21
2022-12-03T18:37:50.036Z,5.18
2022-12-03T18:40:55.435Z,5.16
2022-12-03T18:43:57.657Z,5.07
2022-12-03T18:47:00.051Z,5.04
2022-12-03T18:50:02.402Z,4.96
2022-12-03T18:53:07.114Z,4.89
2022-12-03T18:56:17.836Z,4.84
2022-12-03T18:59:20.117Z,4.99
2022-12-03T19:05:45.151Z,4.86
2022-12-03T19:08:49.303Z,4.77
2022-12-03T19:11:51.575Z,4.67
2022-12-03T19:14:53.756Z,4.67
2022-12-03T19:17:56.028Z,4.67
2022-12-03T19:20:58.263Z,4.70
2022-12-03T19:24:23.394Z,4.52
2022-12-03T19:27:23.178Z,4.31
2022-12-03T19:30:25.545Z,4.24
2022-12-03T19:33:28.815Z,4.22
2022-12-03T19:36:32.332Z,4.31
2022-12-03T19:39:34.724Z,4.38
2022-12-03T19:42:36.990Z,4.21
2022-12-03T19:45:39.248Z,4.19
2022-12-03T19:48:41.732Z,4.21
2022-12-03T19:51:44.131Z,4.15
2022-12-03T19:54:46.387Z,4.24
2022-12-03T19:57:48.778Z,4.28
2022-12-03T20:00:51.054Z,4.19
2022-12-03T20:03:55.207Z,4.21
2022-12-03T20:06:57.468Z,4.25
2022-12-03T20:09:59.793Z,4.35
2022-12-03T20:13:02.150Z,4.34
2022-12-03T20:16:09.186Z,4.36
2022-12-03T20:19:13.744Z,4.32
2022-12-03T20:22:15.947Z,4.41
2022-12-03T20:25:18.343Z,4.35
2022-12-03T20:28:20.744Z,4.36
2022-12-03T20:31:28.257Z,4.34
2022-12-03T20:34:30.579Z,4.28
2022-12-03T20:37:32.994Z,4.26
2022-12-03T20:40:39.017Z,4.18
2022-12-03T20:43:41.675Z,4.19
2022-12-03T20:46:44.001Z,4.12
2022-12-03T20:49:47.039Z,4.09
2022-12-03T20:53:16.185Z,4.11
2022-12-03T20:56:18.674Z,4.09
2022-12-03T20:59:20.886Z,4.09
2022-12-03T21:02:23.212Z,4.09
2022-12-03T21:05:25.475Z,4.09
2022-12-03T21:08:40.588Z,4.09
2022-12-03T21:11:44.079Z,4.04
2022-12-03T21:14:46.392Z,3.99
2022-12-03T21:17:48.619Z,3.98
2022-12-03T21:20:50.893Z,3.91
2022-12-03T21:23:53.113Z,3.90
2022-12-03T21:26:55.976Z,3.85
2022-12-03T21:29:58.159Z,3.81
2022-12-03T21:33:00.428Z,3.76
2022-12-03T21:36:03.327Z,3.67
2022-12-03T21:39:06.456Z,3.69
2022-12-03T21:42:22.172Z,3.69
2022-12-03T21:45:30.928Z,3.66
2022-12-03T21:48:33.775Z,3.73
2022-12-03T21:51:36.074Z,3.69
2022-12-03T21:54:38.342Z,3.67
2022-12-03T21:57:40.612Z,3.66
2022-12-03T22:00:42.824Z,3.60
2022-12-03T22:03:45.366Z,3.57
2022-12-03T22:06:47.549Z,3.60
2022-12-03T22:09:49.847Z,3.53
2022-12-03T22:12:52.066Z,3.47
2022-12-03T22:15:54.402Z,3.46
2022-12-03T22:18:56.595Z,3.44
2022-12-03T22:21:58.848Z,3.43
2022-12-03T22:25:01.072Z,3.30
2022-12-03T22:28:03.480Z,3.30
2022-12-03T22:31:09.363Z,3.30
2022-12-03T22:34:11.745Z,3.26
2022-12-03T22:37:14.019Z,3.13
2022-12-03T22:40:16.604Z,3.11
2022-12-03T22:43:19.224Z,3.11
2022-12-03T22:46:21.530Z,3.12
2022-12-03T22:49:23.816Z,3.06
2022-12-03T22:52:26.087Z,3.05
2022-12-03T22:55:28.295Z,3.05
2022-12-03T22:58:31.699Z,3.02
2022-12-03T23:01:37.123Z,3.06
2022-12-03T23:04:39.405Z,3.09
2022-12-03T23:07:41.704Z,3.05
2022-12-03T23:10:46.336Z,3.06
2022-12-03T23:13:48.774Z,3.05
2022-12-03T23:16:51.012Z,3.02
2022-12-03T23:19:53.563Z,2.98
2022-12-03T23:22:56.244Z,2.98
2022-12-03T23:26:08.772Z,2.95
2022-12-03T23:29:11.109Z,2.96
2022-12-03T23:32:13.459Z,2.96
2022-12-03T23:35:15.690Z,2.88
2022-12-03T23:38:18.376Z,2.91
2022-12-03T23:41:22.649Z,2.84
2022-12-03T23:44:24.980Z,2.84
2022-12-03T23:47:27.266Z,2.82
2022-12-03T23:50:29.884Z,2.77
2022-12-03T23:53:32.711Z,2.70
2022-12-03T23:56:34.925Z,2.70
2022-12-03T23:59:39.167Z,2.71
